Terminal Aerodrome Forecast
Issued by NWS Lake Charles, LA

Home | Current Version | Previous Version | Text Only | Print | Product List | Glossary On
Versions: 1 2 3 4 5 6 7 8 9 10 11 12 13 14 15 16 17 18 19
000
FTUS44 KLCH 260214 AAA
TAFLFT
TAF AMD
KLFT 260214Z 2602/2624 17008KT P6SM VCTS BKN020CB
      TEMPO 2602/2604 17015G35KT 1SM +TSRA BKN015CB
     FM260800 14010G35KT 1SM +TSRA BKN015CB
     FM261000 16006KT P6SM VCTS SCT020CB BKN150
     FM261200 16010KT P6SM BKN025
     FM261800 18012KT P6SM VCTS BKN040CB=

USA.gov is the U.S. government's official web portal to all federal, state and local government web resources and services.